Time;durP1;ratioP1;P1;durP2;ratioP2;P2;SDS_P1;SDS_P2;PMS_P1;PMS_P2;Temp;Humidity;BMP_temperature;BMP_pressure;BME280_temperature;BME280_humidity;BME280_pressure;Samples;Min_cycle;Max_cycle;Signal;HPM_P1;HPM_P2
2023/01/17 00:02:02;;;;;;;3.20;2.47;;;4.00;99.90;;;;;;5130632;27;20066;-72
2023/01/17 00:10:01;;;;;;;4.55;2.35;;;4.10;99.90;;;;;;5122525;27;20043;-72
2023/01/17 00:12:29;;;;;;;3.35;2.25;;;4.10;99.90;;;;;;5114398;27;20528;-72
2023/01/17 00:14:57;;;;;;;4.35;1.90;;;4.10;99.90;;;;;;5132099;27;20088;-72
2023/01/17 00:17:24;;;;;;;5.93;2.10;;;4.20;99.90;;;;;;5131562;27;20489;-72
2023/01/17 01:35:04;;;;;;;1.10;0.22;;;3.90;99.90;;;;;;5129036;27;20420;-72
2023/01/17 01:37:30;;;;;;;2.70;0.50;;;3.80;99.90;;;;;;5128280;27;20043;-72
2023/01/17 01:39:56;;;;;;;0.73;0.30;;;3.80;99.90;;;;;;5110932;28;20043;-72
2023/01/17 01:42:21;;;;;;;2.63;0.43;;;3.80;99.90;;;;;;5129339;27;20043;-72
2023/01/17 01:44:50;;;;;;;3.08;0.75;;;3.70;99.90;;;;;;5109937;28;20145;-72
2023/01/17 01:47:25;;;;;;;1.48;0.40;;;3.70;99.90;;;;;;5106668;28;20050;-72
2023/01/17 01:49:51;;;;;;;4.97;0.68;;;3.70;99.90;;;;;;5125639;28;20368;-72
2023/01/17 01:52:20;;;;;;;3.58;0.50;;;3.60;99.90;;;;;;5125559;28;20046;-72
2023/01/17 01:54:51;;;;;;;2.35;0.50;;;3.60;99.90;;;;;;5128445;28;20088;-71
2023/01/17 01:57:21;;;;;;;3.90;0.85;;;3.60;99.90;;;;;;5127652;28;20481;-71
2023/01/17 02:00:01;;;;;;;3.70;0.50;;;3.50;99.90;;;;;;5107551;28;20036;-72
2023/01/17 02:02:29;;;;;;;5.68;0.80;;;3.50;99.90;;;;;;5108712;28;20509;-72
2023/01/17 02:04:55;;;;;;;4.05;0.50;;;3.50;99.90;;;;;;5106740;28;20051;-73
2023/01/17 02:07:27;;;;;;;2.55;0.82;;;3.50;99.90;;;;;;5099309;28;20092;-70
2023/01/17 02:09:53;;;;;;;2.45;0.47;;;3.50;99.90;;;;;;5108965;28;20055;-71
2023/01/17 02:12:20;;;;;;;3.70;0.68;;;3.40;99.90;;;;;;5104829;28;20059;-71
2023/01/17 02:14:46;;;;;;;0.90;0.30;;;3.40;99.90;;;;;;5105800;28;20036;-71
2023/01/17 02:17:34;;;;;;;4.38;0.77;;;3.40;99.90;;;;;;5108929;28;20476;-71
2023/01/17 02:20:12;;;;;;;2.88;0.80;;;3.40;99.90;;;;;;5105108;28;20043;-71
2023/01/17 02:23:02;;;;;;;5.20;0.80;;;3.40;99.90;;;;;;5106130;28;20050;-71
2023/01/17 02:26:00;;;;;;;5.13;1.65;;;3.40;99.90;;;;;;5099777;28;20085;-71
2023/01/17 02:28:42;;;;;;;3.45;0.73;;;3.40;99.90;;;;;;5064999;28;20491;-71
2023/01/17 02:31:47;;;;;;;2.63;0.85;;;3.40;99.90;;;;;;5111956;28;20058;-71
2023/01/17 02:34:24;;;;;;;4.13;0.80;;;3.40;99.90;;;;;;5088635;28;20052;-71
2023/01/17 02:36:57;;;;;;;5.93;0.70;;;3.40;99.90;;;;;;5094720;28;20032;-71
2023/01/17 02:39:42;;;;;;;1.35;0.50;;;3.30;99.90;;;;;;5105794;28;20054;-71
2023/01/17 02:42:18;;;;;;;5.15;0.68;;;3.30;99.90;;;;;;5112626;28;20135;-71
2023/01/17 02:44:44;;;;;;;5.97;0.60;;;3.30;99.90;;;;;;5107927;28;20051;-71
2023/01/17 02:47:26;;;;;;;2.30;0.60;;;3.20;99.90;;;;;;5111920;28;20078;-71
2023/01/17 02:49:56;;;;;;;5.55;0.60;;;3.20;99.90;;;;;;5108139;28;20098;-71
2023/01/17 02:52:53;;;;;;;5.50;0.63;;;3.10;99.90;;;;;;5104100;28;20042;-71
2023/01/17 02:55:29;;;;;;;4.38;0.90;;;3.10;99.90;;;;;;5103114;28;20043;-71
2023/01/17 02:58:23;;;;;;;7.25;0.73;;;3.10;99.90;;;;;;5110173;28;20061;-71
2023/01/17 03:00:55;;;;;;;4.20;0.68;;;3.10;99.90;;;;;;5109568;28;20659;-71
2023/01/17 03:03:24;;;;;;;4.22;0.70;;;3.00;99.90;;;;;;5105845;28;20060;-71
2023/01/17 03:05:53;;;;;;;4.85;0.80;;;3.00;99.90;;;;;;5128023;27;20499;-71
2023/01/17 03:08:19;;;;;;;3.22;0.60;;;3.00;99.90;;;;;;5103144;27;20035;-71
2023/01/17 03:10:45;;;;;;;4.47;0.70;;;3.00;99.90;;;;;;5115652;27;20382;-71
2023/01/17 03:13:11;;;;;;;4.07;0.55;;;3.00;99.90;;;;;;5099627;27;20043;-71
2023/01/17 03:15:38;;;;;;;6.00;0.88;;;3.00;99.90;;;;;;5131061;27;20497;-71
2023/01/17 03:18:10;;;;;;;6.28;0.70;;;3.00;99.90;;;;;;5130600;27;20133;-71
2023/01/17 03:20:36;;;;;;;1.38;0.57;;;3.00;99.90;;;;;;5112488;27;20057;-71
2023/01/17 03:23:02;;;;;;;4.68;0.77;;;3.00;99.90;;;;;;5131188;27;20043;-71
2023/01/17 03:25:27;;;;;;;4.95;0.98;;;3.00;99.90;;;;;;5129686;27;20104;-72
2023/01/17 03:27:53;;;;;;;6.18;0.73;;;3.00;99.90;;;;;;5110860;27;20075;-71
2023/01/17 03:30:20;;;;;;;5.07;0.95;;;3.00;99.90;;;;;;5110856;27;20039;-72
2023/01/17 03:32:46;;;;;;;5.18;0.60;;;3.00;99.90;;;;;;5112347;27;20039;-70
2023/01/17 03:35:11;;;;;;;4.60;0.63;;;3.00;99.90;;;;;;5129497;27;20076;-70
2023/01/17 03:37:37;;;;;;;4.43;0.60;;;3.10;99.90;;;;;;5132168;27;20043;-70
2023/01/17 03:40:03;;;;;;;5.05;0.82;;;3.10;99.90;;;;;;5128820;27;20130;-71
2023/01/17 03:42:29;;;;;;;6.10;0.73;;;3.10;99.90;;;;;;5103795;28;20097;-71
2023/01/17 03:44:54;;;;;;;5.38;0.80;;;3.10;99.90;;;;;;5126773;27;20659;-71
2023/01/17 03:47:20;;;;;;;4.38;0.90;;;3.10;99.90;;;;;;5128976;27;20045;-71
2023/01/17 03:49:46;;;;;;;2.80;0.50;;;3.10;99.90;;;;;;5130241;27;20046;-70
2023/01/17 03:52:11;;;;;;;5.80;0.95;;;3.10;99.90;;;;;;5110558;27;20507;-71
2023/01/17 03:54:37;;;;;;;3.50;0.80;;;3.10;99.90;;;;;;5131371;27;20035;-70
2023/01/17 03:57:03;;;;;;;5.38;0.77;;;3.10;99.90;;;;;;5130315;27;20046;-71
2023/01/17 03:59:28;;;;;;;5.18;0.82;;;3.10;99.90;;;;;;5128861;27;20540;-70
2023/01/17 04:01:54;;;;;;;3.30;0.70;;;3.00;99.90;;;;;;5132170;27;20477;-71
2023/01/17 04:04:20;;;;;;;3.42;0.73;;;3.00;99.90;;;;;;5127841;27;20075;-71
2023/01/17 04:06:46;;;;;;;5.28;0.88;;;3.00;99.90;;;;;;5128254;27;20043;-70
2023/01/17 04:09:12;;;;;;;3.22;0.70;;;3.10;99.90;;;;;;5111321;27;20055;-71
2023/01/17 04:11:37;;;;;;;2.80;0.60;;;3.00;99.90;;;;;;5112698;27;20043;-71
2023/01/17 04:14:03;;;;;;;2.88;0.55;;;3.00;99.90;;;;;;5111105;27;20066;-71
2023/01/17 04:16:30;;;;;;;3.30;0.63;;;3.00;99.90;;;;;;5113855;27;20081;-71
2023/01/17 04:18:56;;;;;;;3.47;0.60;;;3.00;99.90;;;;;;5112006;27;20156;-71
2023/01/17 04:21:22;;;;;;;5.72;0.60;;;2.90;99.90;;;;;;5130662;27;20039;-71
2023/01/17 04:23:48;;;;;;;4.53;0.70;;;3.00;99.90;;;;;;5130609;27;20081;-71
2023/01/17 04:26:14;;;;;;;5.68;0.73;;;3.00;99.90;;;;;;5129382;27;20150;-71
2023/01/17 04:28:39;;;;;;;2.58;0.68;;;3.00;99.90;;;;;;5107482;27;20181;-71
2023/01/17 04:31:05;;;;;;;4.00;0.80;;;3.00;99.90;;;;;;5112609;27;20427;-71
2023/01/17 04:33:31;;;;;;;4.82;0.75;;;3.00;99.90;;;;;;5109819;27;21273;-70
2023/01/17 04:35:56;;;;;;;5.00;0.70;;;3.00;99.90;;;;;;5113983;27;20126;-71
2023/01/17 04:38:23;;;;;;;5.35;0.60;;;3.00;99.90;;;;;;5113439;27;20075;-71
2023/01/17 04:40:49;;;;;;;1.55;0.60;;;3.00;99.90;;;;;;5128737;27;20039;-71
2023/01/17 04:43:16;;;;;;;5.60;0.80;;;3.00;99.90;;;;;;5111670;27;20035;-71
2023/01/17 04:45:42;;;;;;;5.30;0.60;;;2.90;99.90;;;;;;5129609;27;20534;-71
2023/01/17 04:48:11;;;;;;;4.13;0.70;;;2.90;99.90;;;;;;5129880;27;20312;-71
2023/01/17 04:50:37;;;;;;;5.55;0.82;;;2.90;99.90;;;;;;5124312;27;20398;-71
2023/01/17 04:53:03;;;;;;;2.92;0.70;;;2.80;99.90;;;;;;5130258;27;20043;-71
2023/01/17 04:55:29;;;;;;;3.65;0.77;;;2.80;99.90;;;;;;5129147;27;20039;-71
2023/01/17 04:57:55;;;;;;;4.65;0.70;;;2.80;99.90;;;;;;5111082;27;20050;-72
2023/01/17 05:00:20;;;;;;;8.05;0.85;;;2.70;99.90;;;;;;5123146;27;20050;-73
2023/01/17 05:02:46;;;;;;;5.05;1.00;;;2.70;99.90;;;;;;5112196;27;20108;-70
2023/01/17 05:05:12;;;;;;;7.90;0.90;;;2.70;99.90;;;;;;5127687;27;20047;-71
2023/01/17 05:07:38;;;;;;;7.57;0.98;;;2.70;99.90;;;;;;5124947;27;20503;-71
2023/01/17 05:10:04;;;;;;;9.82;1.17;;;2.70;99.90;;;;;;5110849;27;20045;-71
2023/01/17 05:12:29;;;;;;;7.07;0.93;;;2.70;99.90;;;;;;5112235;27;20046;-70
2023/01/17 05:14:55;;;;;;;4.78;1.00;;;2.60;99.90;;;;;;5110283;27;20046;-71
2023/01/17 05:17:20;;;;;;;6.40;1.00;;;2.60;99.90;;;;;;5111283;27;20043;-71
2023/01/17 05:19:46;;;;;;;4.40;1.10;;;2.60;99.90;;;;;;5127479;27;20459;-71
2023/01/17 05:22:15;;;;;;;6.57;1.08;;;2.60;99.90;;;;;;5123773;27;20047;-70
2023/01/17 05:24:46;;;;;;;5.28;1.08;;;2.60;99.90;;;;;;5111717;27;20402;-71
2023/01/17 05:27:13;;;;;;;4.57;1.00;;;2.50;99.90;;;;;;5117233;27;20818;-71
2023/01/17 05:29:39;;;;;;;6.35;0.93;;;2.50;99.90;;;;;;5110082;28;20112;-71
2023/01/17 05:32:05;;;;;;;6.80;0.77;;;2.50;99.90;;;;;;5128534;27;20087;-71
2023/01/17 05:34:31;;;;;;;6.13;0.90;;;2.50;99.90;;;;;;5129565;27;20049;-71
2023/01/17 05:36:57;;;;;;;5.60;0.90;;;2.40;99.90;;;;;;5122679;27;20047;-71
2023/01/17 05:39:23;;;;;;;5.40;1.08;;;2.40;99.90;;;;;;5110880;27;20047;-71
2023/01/17 05:41:49;;;;;;;7.20;1.13;;;2.40;99.90;;;;;;5111130;28;20118;-71
2023/01/17 05:44:14;;;;;;;8.13;1.13;;;2.40;99.90;;;;;;5128254;27;20374;-71
2023/01/17 05:46:41;;;;;;;4.25;0.65;;;2.40;99.90;;;;;;5128582;27;20114;-70
2023/01/17 05:49:07;;;;;;;6.63;1.10;;;2.30;99.90;;;;;;5125312;28;20055;-71
2023/01/17 05:51:36;;;;;;;5.70;1.40;;;2.30;99.90;;;;;;5107915;28;20481;-71
2023/01/17 05:54:05;;;;;;;5.22;0.88;;;2.30;99.90;;;;;;5128431;28;20051;-71
2023/01/17 05:56:32;;;;;;;9.20;1.92;;;2.30;99.90;;;;;;5129109;28;20036;-71
2023/01/17 05:58:57;;;;;;;6.57;1.02;;;2.30;99.90;;;;;;5106825;28;20047;-71
2023/01/17 06:01:23;;;;;;;9.30;1.42;;;2.30;99.90;;;;;;5107194;28;20465;-70
2023/01/17 06:03:49;;;;;;;7.30;1.20;;;2.30;99.90;;;;;;5110771;27;20039;-71
2023/01/17 06:06:14;;;;;;;11.07;1.15;;;2.30;99.90;;;;;;5125506;27;20056;-71
2023/01/17 06:08:40;;;;;;;7.82;1.10;;;2.30;99.90;;;;;;5127381;27;20042;-71
2023/01/17 06:11:06;;;;;;;8.07;1.90;;;2.20;99.90;;;;;;5110957;27;20058;-70
2023/01/17 06:13:31;;;;;;;6.65;1.02;;;2.20;99.90;;;;;;5129077;27;20057;-71
2023/01/17 06:16:01;;;;;;;7.28;1.52;;;2.20;99.90;;;;;;5115649;27;20083;-71
2023/01/17 06:18:27;;;;;;;6.95;1.00;;;2.20;99.90;;;;;;5131932;27;20156;-71
2023/01/17 06:20:53;;;;;;;7.75;1.30;;;2.10;99.90;;;;;;5113914;27;20047;-70
2023/01/17 06:23:20;;;;;;;7.18;1.55;;;2.20;99.90;;;;;;5132649;27;20053;-71
2023/01/17 06:25:46;;;;;;;4.78;1.00;;;2.20;99.90;;;;;;5131108;27;20390;-70
2023/01/17 06:28:14;;;;;;;6.00;1.00;;;2.10;99.90;;;;;;5116812;27;20045;-71
2023/01/17 06:30:42;;;;;;;7.82;1.13;;;2.10;99.90;;;;;;5131937;27;20043;-71
2023/01/17 06:33:08;;;;;;;9.60;1.30;;;2.10;99.90;;;;;;5126616;27;20043;-70
2023/01/17 06:35:37;;;;;;;6.53;1.10;;;2.10;99.90;;;;;;5133099;27;20092;-70
2023/01/17 06:38:02;;;;;;;9.05;0.98;;;2.10;99.90;;;;;;5118042;27;20055;-71
2023/01/17 06:40:29;;;;;;;4.47;0.80;;;2.10;99.90;;;;;;5131594;27;20049;-70
2023/01/17 06:43:02;;;;;;;9.30;1.35;;;2.10;99.90;;;;;;5115335;27;20474;-72
2023/01/17 06:45:30;;;;;;;10.65;1.52;;;2.10;99.90;;;;;;5126747;27;20039;-72
2023/01/17 06:47:58;;;;;;;5.32;1.42;;;2.10;99.90;;;;;;5127887;27;20477;-72
2023/01/17 06:50:24;;;;;;;;;;;2.10;99.90;;;;;;5111391;27;20050;-72
2023/01/17 06:53:03;;;;;;;6.75;1.38;;;2.00;99.90;;;;;;5131658;27;20010;-71
2023/01/17 06:55:32;;;;;;;5.65;1.10;;;2.00;99.90;;;;;;5111409;27;20043;-71
2023/01/17 06:57:58;;;;;;;7.07;1.33;;;2.00;99.90;;;;;;5113521;27;20177;-71
2023/01/17 07:00:25;;;;;;;5.00;1.20;;;2.00;99.90;;;;;;5129299;27;20640;-71
2023/01/17 07:02:52;;;;;;;4.88;1.00;;;2.00;99.90;;;;;;5132499;27;20139;-71
2023/01/17 07:05:18;;;;;;;8.18;1.52;;;2.10;99.90;;;;;;5110040;27;20126;-72
2023/01/17 07:07:45;;;;;;;6.10;1.08;;;2.00;99.90;;;;;;5131475;27;20046;-70
2023/01/17 07:10:12;;;;;;;9.05;1.15;;;2.00;99.90;;;;;;5129665;27;20039;-71
2023/01/17 07:12:38;;;;;;;5.78;1.00;;;2.00;99.90;;;;;;5108142;27;20042;-70
2023/01/17 07:15:05;;;;;;;9.35;1.20;;;2.00;99.90;;;;;;5111358;27;20046;-71
2023/01/17 07:17:32;;;;;;;4.93;1.02;;;2.00;99.90;;;;;;5111495;27;20399;-71
2023/01/17 07:19:57;;;;;;;5.03;1.10;;;2.00;99.90;;;;;;5113726;27;20478;-71
2023/01/17 07:22:23;;;;;;;4.82;0.80;;;2.00;99.90;;;;;;5110308;27;20047;-71
2023/01/17 07:24:49;;;;;;;6.57;1.13;;;2.00;99.90;;;;;;5132206;27;20039;-71
2023/01/17 07:27:16;;;;;;;3.65;0.93;;;2.00;99.90;;;;;;5109805;27;20034;-71
2023/01/17 07:29:41;;;;;;;7.65;1.15;;;2.00;99.90;;;;;;5112398;27;20375;-71
2023/01/17 07:32:09;;;;;;;4.93;0.90;;;2.00;99.90;;;;;;5111868;27;20047;-71
2023/01/17 07:34:35;;;;;;;;;;;2.00;99.90;;;;;;5133123;27;20050;-71
2023/01/17 07:37:01;;;;;;;5.90;1.00;;;2.00;99.90;;;;;;5128099;27;20372;-71
2023/01/17 07:39:26;;;;;;;5.43;1.08;;;2.10;99.90;;;;;;5128961;27;20429;-71
2023/01/17 07:41:53;;;;;;;6.22;1.23;;;2.10;99.90;;;;;;5106007;27;20039;-71
2023/01/17 07:44:18;;;;;;;5.93;1.17;;;2.10;99.90;;;;;;5129256;27;20047;-71
2023/01/17 07:46:44;;;;;;;9.15;1.17;;;2.00;99.90;;;;;;5112247;27;20554;-71
2023/01/17 07:49:09;;;;;;;7.93;1.15;;;2.00;99.90;;;;;;5111072;27;20478;-71
2023/01/17 07:51:35;;;;;;;9.73;1.27;;;2.10;99.90;;;;;;5111808;27;20096;-71
2023/01/17 07:54:01;;;;;;;7.05;1.17;;;2.10;99.90;;;;;;5131294;27;20039;-71
2023/01/17 07:56:27;;;;;;;5.20;1.02;;;2.10;99.90;;;;;;5131480;27;20039;-71
2023/01/17 07:58:53;;;;;;;5.43;0.95;;;2.10;99.90;;;;;;5113088;27;20485;-71
2023/01/17 08:01:19;;;;;;;3.65;1.30;;;2.10;99.90;;;;;;5110768;27;20093;-71
2023/01/17 08:03:45;;;;;;;6.30;1.33;;;2.10;99.90;;;;;;5130147;27;20031;-71
2023/01/17 08:06:20;;;;;;;6.47;1.25;;;2.00;99.90;;;;;;5128064;27;20088;-71
2023/01/17 08:08:47;;;;;;;6.10;1.10;;;2.10;99.90;;;;;;5113852;27;20049;-70
2023/01/17 08:11:14;;;;;;;4.03;1.10;;;2.10;99.90;;;;;;5130590;27;20059;-70
2023/01/17 08:13:40;;;;;;;5.78;1.30;;;2.00;99.90;;;;;;5131166;27;20655;-71
2023/01/17 08:16:10;;;;;;;6.10;1.45;;;2.10;99.90;;;;;;5128176;27;20118;-71
2023/01/17 08:18:36;;;;;;;7.97;1.40;;;2.10;99.90;;;;;;5112414;27;20070;-74
2023/01/17 08:21:02;;;;;;;5.55;1.45;;;2.10;99.90;;;;;;5112273;27;20078;-74
2023/01/17 08:23:30;;;;;;;5.95;1.85;;;2.00;99.90;;;;;;5112211;27;20075;-75
2023/01/17 08:26:02;;;;;;;7.38;1.83;;;2.00;99.90;;;;;;5108805;27;20135;-74
2023/01/17 08:28:27;;;;;;;5.80;1.73;;;2.00;99.90;;;;;;5131274;27;20146;-75
2023/01/17 08:30:53;;;;;;;5.90;1.58;;;2.00;99.90;;;;;;5113393;27;20143;-74
2023/01/17 08:33:18;;;;;;;6.50;1.85;;;2.00;99.90;;;;;;5132316;27;20039;-73
2023/01/17 08:35:53;;;;;;;10.27;2.75;;;2.00;99.90;;;;;;5113015;27;20088;-74
2023/01/17 08:38:22;;;;;;;4.38;2.10;;;2.10;99.90;;;;;;5114417;27;20571;-73
2023/01/17 08:40:51;;;;;;;7.43;2.10;;;2.10;99.90;;;;;;5113011;27;20405;-73
2023/01/17 08:43:17;;;;;;;7.07;2.10;;;2.10;99.90;;;;;;5130665;27;20031;-73
2023/01/17 08:45:47;;;;;;;9.27;2.35;;;2.10;99.90;;;;;;5103035;27;20163;-75
2023/01/17 08:48:13;;;;;;;7.20;2.55;;;2.20;99.90;;;;;;5107080;27;20053;-74
2023/01/17 08:50:39;;;;;;;8.20;2.75;;;2.20;99.90;;;;;;5130694;27;20043;-74
2023/01/17 08:53:05;;;;;;;9.27;2.75;;;2.20;99.90;;;;;;5127700;27;20047;-74
2023/01/17 08:55:32;;;;;;;6.93;2.83;;;2.20;99.90;;;;;;5128114;27;20042;-74
2023/01/17 08:57:57;;;;;;;6.18;2.50;;;2.20;99.90;;;;;;5112331;27;20043;-74
2023/01/17 09:00:23;;;;;;;6.13;2.65;;;2.30;99.90;;;;;;5113100;27;20087;-74
2023/01/17 09:02:52;;;;;;;6.40;2.50;;;2.30;99.90;;;;;;5132685;27;20043;-74
2023/01/17 09:05:18;;;;;;;6.68;2.40;;;2.40;99.90;;;;;;5109344;27;20543;-75
2023/01/17 09:07:44;;;;;;;6.18;2.53;;;2.40;99.90;;;;;;5113556;27;20073;-75
2023/01/17 09:10:10;;;;;;;9.93;2.80;;;2.40;99.90;;;;;;5131081;27;20474;-74
2023/01/17 09:12:36;;;;;;;7.80;2.45;;;2.40;99.90;;;;;;5132529;27;20039;-73
2023/01/17 09:15:03;;;;;;;10.07;3.65;;;2.40;99.90;;;;;;5131160;27;20143;-74
2023/01/17 09:17:29;;;;;;;6.05;2.42;;;2.50;99.90;;;;;;5128791;27;20371;-74
2023/01/17 09:19:55;;;;;;;8.80;2.92;;;2.50;99.90;;;;;;5125604;27;20042;-73
2023/01/17 09:22:20;;;;;;;8.43;2.42;;;2.50;99.90;;;;;;5130135;27;20387;-74
2023/01/17 09:24:46;;;;;;;7.95;2.92;;;2.50;99.90;;;;;;5132337;27;20050;-74
2023/01/17 09:27:12;;;;;;;8.63;3.15;;;2.60;99.90;;;;;;5130682;27;20038;-72
2023/01/17 09:29:37;;;;;;;10.10;3.10;;;2.60;99.90;;;;;;5131222;27;20062;-72
2023/01/17 09:32:03;;;;;;;5.88;2.70;;;2.60;99.90;;;;;;5110864;27;20046;-71
2023/01/17 09:34:29;;;;;;;9.05;3.08;;;2.60;99.90;;;;;;5120969;27;20488;-71
2023/01/17 09:36:55;;;;;;;7.30;2.80;;;2.60;99.90;;;;;;5124440;27;20039;-70
2023/01/17 09:39:21;;;;;;;7.97;3.05;;;2.60;99.90;;;;;;5109244;27;20051;-71
2023/01/17 09:42:21;;;;;;;10.55;3.42;;;2.60;99.90;;;;;;5128910;27;20458;-72
2023/01/17 09:44:53;;;;;;;14.15;5.60;;;2.70;99.90;;;;;;5113197;28;20047;-72
2023/01/17 09:47:32;;;;;;;12.00;4.20;;;2.70;99.90;;;;;;5112480;28;20042;-73
2023/01/17 09:50:17;;;;;;;11.60;5.15;;;2.80;99.90;;;;;;5131143;27;20394;-71
2023/01/17 09:52:43;;;;;;;11.45;4.45;;;2.80;99.90;;;;;;5130876;28;20050;-72
2023/01/17 09:55:14;;;;;;;12.68;4.72;;;2.80;99.90;;;;;;5130905;28;20556;-71
2023/01/17 09:57:59;;;;;;;13.98;4.63;;;2.80;99.90;;;;;;5111845;28;20095;-72
2023/01/17 10:00:34;;;;;;;9.70;4.82;;;2.90;99.90;;;;;;5130241;28;20043;-71
2023/01/17 10:03:23;;;;;;;9.75;3.97;;;2.90;99.90;;;;;;5130311;28;20035;-72
2023/01/17 10:06:07;;;;;;;10.73;4.20;;;2.90;99.90;;;;;;5107111;28;20533;-72
2023/01/17 10:09:02;;;;;;;8.18;3.95;;;2.90;99.90;;;;;;5104259;28;20528;-71
2023/01/17 10:11:39;;;;;;;9.85;3.90;;;3.00;99.90;;;;;;5110019;28;20063;-72
2023/01/17 10:14:05;;;;;;;;;;;3.00;99.90;;;;;;5125287;28;20047;-75
2023/01/17 10:16:56;;;;;;;11.35;4.15;;;3.10;99.90;;;;;;5113099;28;19926;-75
2023/01/17 10:19:33;;;;;;;10.00;3.63;;;3.10;99.90;;;;;;5128431;28;20389;-76
2023/01/17 10:22:20;;;;;;;;;;;3.10;99.90;;;;;;5112588;28;20047;-75
2023/01/17 10:24:56;;;;;;;8.48;3.65;;;3.20;99.90;;;;;;5130253;28;20399;-75
2023/01/17 10:27:31;;;;;;;10.50;4.22;;;3.20;99.90;;;;;;5129752;28;20043;-74
2023/01/17 10:29:58;;;;;;;10.10;4.20;;;3.30;99.90;;;;;;5115543;28;20043;-75
2023/01/17 10:32:27;;;;;;;10.20;4.35;;;3.40;99.90;;;;;;5122076;28;20114;-76
2023/01/17 10:34:53;;;;;;;8.20;4.20;;;3.40;99.90;;;;;;5111822;28;20055;-75
2023/01/17 10:37:23;;;;;;;7.95;4.10;;;3.50;99.90;;;;;;5123061;28;20031;-74
2023/01/17 10:39:52;;;;;;;6.47;3.95;;;3.50;99.90;;;;;;5130100;28;20061;-75
2023/01/17 10:42:50;;;;;;;8.30;3.83;;;3.60;99.90;;;;;;5130385;28;20039;-73
2023/01/17 10:45:24;;;;;;;9.65;3.75;;;3.60;99.90;;;;;;5102803;28;20048;-73
2023/01/17 10:48:10;;;;;;;10.88;5.10;;;3.60;99.90;;;;;;5111979;28;20054;-75
2023/01/17 10:50:59;;;;;;;13.40;4.82;;;3.70;99.90;;;;;;5099295;28;20501;-74
2023/01/17 10:53:42;;;;;;;12.00;4.57;;;3.70;99.90;;;;;;5097188;27;20039;-75
2023/01/17 10:56:12;;;;;;;10.57;4.57;;;3.80;99.90;;;;;;5121659;27;20139;-74
2023/01/17 10:58:38;;;;;;;6.70;4.13;;;3.80;99.90;;;;;;5104651;27;20067;-71
2023/01/17 11:01:19;;;;;;;10.55;4.38;;;3.80;99.90;;;;;;5129109;27;20555;-74
2023/01/17 11:03:53;;;;;;;8.30;4.00;;;3.80;99.90;;;;;;5115213;27;20054;-74
2023/01/17 11:06:22;;;;;;;10.85;4.53;;;3.90;99.90;;;;;;5109204;27;20066;-75
2023/01/17 11:08:53;;;;;;;9.13;4.38;;;3.90;99.90;;;;;;5126749;27;20120;-74
2023/01/17 11:11:28;;;;;;;11.32;4.35;;;3.90;99.90;;;;;;5111630;27;20050;-73
2023/01/17 11:13:55;;;;;;;10.13;4.60;;;3.90;99.90;;;;;;5103936;27;20199;-74
2023/01/17 11:16:24;;;;;;;8.00;4.28;;;3.90;99.90;;;;;;5114043;27;20054;-74
2023/01/17 11:19:16;;;;;;;10.10;4.63;;;4.00;99.90;;;;;;5132012;27;20062;-73
2023/01/17 11:22:12;;;;;;;9.38;4.65;;;3.90;99.90;;;;;;5112709;27;20090;-76
2023/01/17 11:24:49;;;;;;;12.52;4.13;;;4.00;99.90;;;;;;5110093;27;20074;-74
2023/01/17 11:27:26;;;;;;;12.05;4.53;;;4.00;99.90;;;;;;5122630;27;20074;-74
2023/01/17 11:30:16;;;;;;;7.50;4.57;;;4.00;99.90;;;;;;5109561;27;20039;-73
2023/01/17 11:32:56;;;;;;;11.02;4.72;;;4.00;99.90;;;;;;5107420;27;20067;-75
2023/01/17 11:35:32;;;;;;;10.98;4.30;;;4.10;99.90;;;;;;5125505;27;20443;-76
2023/01/17 11:38:03;;;;;;;10.48;4.05;;;4.10;99.90;;;;;;5110662;27;20044;-76
2023/01/17 11:40:46;;;;;;;10.27;4.32;;;4.10;99.90;;;;;;5112079;27;20043;-76
2023/01/17 11:43:17;;;;;;;10.77;3.67;;;4.20;99.90;;;;;;5130913;27;20047;-77
2023/01/17 11:45:44;;;;;;;9.70;3.50;;;4.20;99.90;;;;;;5131572;27;20118;-78
2023/01/17 11:48:11;;;;;;;8.73;3.20;;;4.20;99.90;;;;;;5111864;27;20054;-78
2023/01/17 11:50:45;;;;;;;13.00;4.30;;;4.10;99.90;;;;;;5130421;27;20967;-79
2023/01/17 11:53:29;;;;;;;9.32;3.78;;;4.20;99.90;;;;;;5127621;27;20091;-73
2023/01/17 11:56:26;;;;;;;9.65;3.58;;;4.30;99.90;;;;;;5128913;27;20050;-74
2023/01/17 11:59:15;;;;;;;9.68;3.83;;;4.30;99.90;;;;;;5099898;27;20063;-74
2023/01/17 12:01:43;;;;;;;9.40;3.92;;;4.40;99.90;;;;;;5130167;27;20766;-73
2023/01/17 12:04:37;;;;;;;11.40;4.05;;;4.40;99.90;;;;;;5112461;27;20050;-74
2023/01/17 12:07:25;;;;;;;9.38;3.42;;;4.40;99.90;;;;;;5108579;27;20043;-74
2023/01/17 12:10:09;;;;;;;9.35;3.88;;;4.60;99.90;;;;;;5106224;27;20122;-76
2023/01/17 12:16:30;;;;;;;5.80;2.53;;;4.70;99.90;;;;;;5130611;27;20393;-72
2023/01/17 12:19:15;;;;;;;7.65;3.03;;;4.70;99.90;;;;;;5130437;27;20078;-72
2023/01/17 12:21:49;;;;;;;7.43;2.63;;;4.60;99.90;;;;;;5127254;27;20035;-73
2023/01/17 12:24:29;;;;;;;7.13;2.63;;;4.60;99.90;;;;;;5110895;27;20490;-73
2023/01/17 12:27:11;;;;;;;7.07;2.58;;;4.60;99.90;;;;;;5113502;27;20092;-73
2023/01/17 12:30:02;;;;;;;5.85;2.05;;;4.60;99.90;;;;;;5126120;27;20039;-73
2023/01/17 12:33:07;;;;;;;8.10;2.13;;;4.60;99.90;;;;;;5110913;27;20535;-73
2023/01/17 12:35:38;;;;;;;9.15;2.35;;;4.60;99.90;;;;;;5111961;27;20314;-72
2023/01/17 12:38:19;;;;;;;7.18;1.90;;;4.60;99.90;;;;;;5111497;27;20448;-72
2023/01/17 12:40:55;;;;;;;6.15;1.80;;;4.60;99.90;;;;;;5129728;27;20781;-72
2023/01/17 12:43:32;;;;;;;9.07;2.10;;;4.60;99.90;;;;;;5105840;27;20051;-73
2023/01/17 12:46:04;;;;;;;4.97;1.95;;;4.60;99.90;;;;;;5128761;27;20057;-73
2023/01/17 12:48:35;;;;;;;4.22;1.65;;;4.60;99.90;;;;;;5131255;27;20095;-73
2023/01/17 12:51:40;;;;;;;7.20;1.98;;;4.60;99.90;;;;;;5131461;27;20054;-73
2023/01/17 12:54:18;;;;;;;8.48;1.95;;;4.60;99.90;;;;;;5108674;27;20054;-73
2023/01/17 12:57:10;;;;;;;9.25;2.20;;;4.60;99.90;;;;;;5129941;27;20035;-73
2023/01/17 13:00:01;;;;;;;8.10;2.42;;;4.70;99.90;;;;;;5121037;27;20180;-73
2023/01/17 13:02:35;;;;;;;6.50;2.00;;;4.70;99.90;;;;;;5129402;27;20047;-73
2023/01/17 13:05:04;;;;;;;5.20;1.80;;;4.70;99.90;;;;;;5101188;27;20144;-73
2023/01/17 13:07:41;;;;;;;9.80;2.05;;;4.60;99.90;;;;;;5109856;27;20043;-72
2023/01/17 13:10:06;;;;;;;6.45;1.70;;;4.70;99.90;;;;;;5108546;27;20050;-73
2023/01/17 13:12:36;;;;;;;5.40;1.92;;;4.70;99.90;;;;;;5105841;27;20046;-73
2023/01/17 13:15:12;;;;;;;6.05;2.05;;;4.70;99.90;;;;;;5108200;27;20058;-72
2023/01/17 13:17:46;;;;;;;6.20;2.28;;;4.60;99.90;;;;;;5105752;27;20078;-72
2023/01/17 13:20:30;;;;;;;4.97;1.90;;;4.70;99.90;;;;;;5127362;27;20039;-72
2023/01/17 13:23:08;;;;;;;7.22;1.70;;;4.70;99.90;;;;;;5112269;27;20079;-71
2023/01/17 13:25:43;;;;;;;5.85;1.67;;;4.70;99.90;;;;;;5111529;27;20818;-72
2023/01/17 13:28:29;;;;;;;7.65;1.90;;;4.70;99.90;;;;;;5105940;27;20035;-72
2023/01/17 13:31:22;;;;;;;6.55;2.10;;;4.70;99.90;;;;;;5110963;27;20055;-72
2023/01/17 13:33:48;;;;;;;6.70;1.90;;;4.70;99.90;;;;;;5099390;28;20498;-72
2023/01/17 13:36:30;;;;;;;7.38;1.90;;;4.70;99.90;;;;;;5111320;28;20046;-73
2023/01/17 13:39:33;;;;;;;8.50;1.92;;;4.60;99.90;;;;;;5118536;27;20535;-72
2023/01/17 13:42:21;;;;;;;6.28;2.13;;;4.60;99.90;;;;;;5108898;27;20051;-72
2023/01/17 13:44:47;;;;;;;5.22;2.00;;;4.60;99.90;;;;;;5127658;27;20055;-72
2023/01/17 13:47:16;;;;;;;4.90;2.03;;;4.60;99.90;;;;;;5123110;27;20113;-72
2023/01/17 13:49:50;;;;;;;8.00;2.10;;;4.60;99.90;;;;;;5101929;28;20057;-76
2023/01/17 13:52:19;;;;;;;9.27;1.92;;;4.60;99.90;;;;;;5110083;28;20035;-74
2023/01/17 13:54:44;;;;;;;6.45;2.25;;;4.60;99.90;;;;;;5127922;28;20042;-76
2023/01/17 13:57:25;;;;;;;7.95;2.08;;;4.60;99.90;;;;;;5104508;27;20055;-76
2023/01/17 13:59:52;;;;;;;4.93;1.60;;;4.60;99.90;;;;;;5120840;27;20390;-77
2023/01/17 14:02:37;;;;;;;6.60;1.92;;;4.60;99.90;;;;;;5124011;28;20061;-77
2023/01/17 14:05:09;;;;;;;6.07;1.70;;;4.60;99.90;;;;;;5105351;28;20062;-75
2023/01/17 14:07:41;;;;;;;9.23;2.00;;;4.60;99.90;;;;;;5108545;28;20096;-73
2023/01/17 14:10:36;;;;;;;6.35;1.67;;;4.60;99.90;;;;;;5106801;28;20126;-73
2023/01/17 14:13:03;;;;;;;5.55;1.70;;;4.50;99.90;;;;;;5105383;28;20058;-75
2023/01/17 14:15:31;;;;;;;;;;;4.50;99.90;;;;;;5129646;28;20043;-74
2023/01/17 14:17:59;;;;;;;5.90;1.90;;;4.50;99.90;;;;;;5128121;28;19923;-75
2023/01/17 14:20:25;;;;;;;5.85;1.67;;;4.50;99.90;;;;;;5130027;28;20039;-75
2023/01/17 14:22:52;;;;;;;7.03;1.75;;;4.50;99.90;;;;;;5127008;28;20040;-75
2023/01/17 14:25:27;;;;;;;7.72;2.03;;;4.40;99.90;;;;;;5130847;27;20058;-75
2023/01/17 14:27:57;;;;;;;4.28;1.50;;;4.40;99.90;;;;;;5114864;27;20047;-75
2023/01/17 14:30:27;;;;;;;7.13;1.90;;;4.30;99.90;;;;;;5107965;27;20045;-76
2023/01/17 14:33:19;;;;;;;7.68;1.70;;;4.40;99.90;;;;;;5130500;27;20031;-74
2023/01/17 14:35:57;;;;;;;6.43;1.95;;;4.40;99.90;;;;;;5120528;27;20047;-73
2023/01/17 14:38:32;;;;;;;9.75;1.80;;;4.40;99.90;;;;;;5113206;27;20054;-75
2023/01/17 14:41:06;;;;;;;5.15;1.67;;;4.30;99.90;;;;;;5129365;27;20031;-75
2023/01/17 14:43:35;;;;;;;4.45;1.83;;;4.30;99.90;;;;;;5129646;27;20503;-76
2023/01/17 14:46:04;;;;;;;4.05;1.50;;;4.30;99.90;;;;;;5110509;27;20042;-76